Time;durP1;ratioP1;P1;durP2;ratioP2;P2;SDS_P1;SDS_P2;PMS_P1;PMS_P2;Temp;Humidity;BMP_temperature;BMP_pressure;BME280_temperature;BME280_humidity;BME280_pressure;Samples;Min_cycle;Max_cycle;Signal;HPM_P1;HPM_P2
2021/09/18 00:02:23;;;;;;;12.83;7.00;;;;;;;;;;5014017;28;20200;-86
2021/09/18 00:05:27;;;;;;;7.90;6.57;;;;;;;;;;5013723;28;20225;-84
2021/09/18 00:08:31;;;;;;;11.73;6.23;;;;;;;;;;5044506;28;20195;-86
2021/09/18 00:11:36;;;;;;;6.60;5.97;;;;;;;;;;5025122;28;20177;-86
2021/09/18 00:14:40;;;;;;;5.50;5.00;;;;;;;;;;5036223;28;20189;-85
2021/09/18 00:17:45;;;;;;;5.97;5.37;;;;;;;;;;5033542;28;20211;-86
2021/09/18 00:20:49;;;;;;;6.27;5.67;;;;;;;;;;5044579;28;20634;-85
2021/09/18 00:23:54;;;;;;;6.07;5.47;;;;;;;;;;5037413;28;20187;-86
2021/09/18 00:26:58;;;;;;;6.53;5.73;;;;;;;;;;5049776;28;20223;-86
2021/09/18 00:30:03;;;;;;;6.90;6.20;;;;;;;;;;5044209;28;20192;-86
2021/09/18 00:33:07;;;;;;;6.83;5.60;;;;;;;;;;5044248;28;20195;-85
2021/09/18 00:36:11;;;;;;;7.87;5.90;;;;;;;;;;5045804;28;20556;-86
2021/09/18 00:39:16;;;;;;;6.80;6.10;;;;;;;;;;5049557;28;20211;-86
2021/09/18 00:42:19;;;;;;;5.53;5.03;;;;;;;;;;5064311;28;20195;-86
2021/09/18 00:45:24;;;;;;;6.13;5.03;;;;;;;;;;5073304;28;20207;-86
2021/09/18 00:48:28;;;;;;;9.23;5.87;;;;;;;;;;5049191;28;20186;-86
2021/09/18 00:51:32;;;;;;;5.80;4.90;;;;;;;;;;5053012;28;20179;-86
2021/09/18 00:54:36;;;;;;;7.13;5.77;;;;;;;;;;5053015;28;20210;-86
2021/09/18 00:57:41;;;;;;;5.63;5.00;;;;;;;;;;5012921;28;20212;-86
2021/09/18 01:00:46;;;;;;;7.00;5.40;;;;;;;;;;5024291;28;20185;-86
2021/09/18 01:03:50;;;;;;;7.30;5.40;;;;;;;;;;5029502;28;20196;-86
2021/09/18 01:06:54;;;;;;;6.80;5.40;;;;;;;;;;5041669;28;20223;-86
2021/09/18 01:09:58;;;;;;;7.37;6.00;;;;;;;;;;5064454;28;20179;-86
2021/09/18 01:13:04;;;;;;;8.27;5.63;;;;;;;;;;5052976;28;20623;-86
2021/09/18 01:16:09;;;;;;;5.97;5.47;;;;;;;;;;5044706;28;20683;-86
2021/09/18 01:19:13;;;;;;;7.13;6.43;;;;;;;;;;5055968;28;20195;-86
2021/09/18 01:22:26;;;;;;;7.20;6.50;;;;;;;;;;5059464;28;20203;-86
2021/09/18 01:25:33;;;;;;;7.47;6.10;;;;;;;;;;5049433;28;20516;-86
2021/09/18 01:28:41;;;;;;;7.53;6.60;;;;;;;;;;5047832;28;20195;-85
2021/09/18 01:31:47;;;;;;;10.43;7.50;;;;;;;;;;5059489;28;20192;-84
2021/09/18 01:34:51;;;;;;;11.23;7.80;;;;;;;;;;5008795;28;20212;-85
2021/09/18 01:37:55;;;;;;;7.47;6.77;;;;;;;;;;5018615;28;20406;-86
2021/09/18 01:41:00;;;;;;;7.80;7.00;;;;;;;;;;5008508;28;20204;-85
2021/09/18 01:44:03;;;;;;;7.50;6.80;;;;;;;;;;5055906;28;20199;-85
2021/09/18 01:47:09;;;;;;;9.57;7.30;;;;;;;;;;5022633;28;20236;-84
2021/09/18 01:50:41;;;;;;;8.10;6.73;;;;;;;;;;5012965;28;20184;-86
2021/09/18 01:53:45;;;;;;;7.83;7.03;;;;;;;;;;5034388;28;20180;-85
2021/09/18 01:56:50;;;;;;;9.77;6.53;;;;;;;;;;5043342;28;20222;-84
2021/09/18 01:59:54;;;;;;;10.37;7.03;;;;;;;;;;5048603;28;20183;-86
2021/09/18 02:02:58;;;;;;;8.70;6.80;;;;;;;;;;5039600;28;20195;-84
2021/09/18 02:06:03;;;;;;;8.30;6.63;;;;;;;;;;5020626;28;20247;-84
2021/09/18 02:09:07;;;;;;;6.50;5.90;;;;;;;;;;5009020;28;20177;-87
2021/09/18 02:12:11;;;;;;;7.33;6.10;;;;;;;;;;5013965;28;20185;-86
2021/09/18 02:15:17;;;;;;;7.37;6.67;;;;;;;;;;5046978;28;20195;-86
2021/09/18 02:18:21;;;;;;;11.33;7.43;;;;;;;;;;5043190;28;20208;-86
2021/09/18 02:21:25;;;;;;;10.43;6.67;;;;;;;;;;5042514;28;20658;-86
2021/09/18 02:24:29;;;;;;;12.03;6.37;;;;;;;;;;5050256;28;20246;-86
2021/09/18 02:27:33;;;;;;;9.13;5.90;;;;;;;;;;5010772;28;20599;-86
2021/09/18 02:30:38;;;;;;;7.33;6.50;;;;;;;;;;5011457;28;20533;-86
2021/09/18 02:33:42;;;;;;;7.53;6.70;;;;;;;;;;5011854;28;20185;-84
2021/09/18 02:36:46;;;;;;;9.63;6.73;;;;;;;;;;5025985;28;20683;-86
2021/09/18 02:39:50;;;;;;;9.40;7.30;;;;;;;;;;5039994;28;20199;-86
2021/09/18 02:42:58;;;;;;;7.80;6.53;;;;;;;;;;5058130;28;20180;-86
2021/09/18 02:46:02;;;;;;;7.40;6.40;;;;;;;;;;5054069;28;20223;-86
2021/09/18 02:49:06;;;;;;;9.90;7.10;;;;;;;;;;5031084;28;20184;-86
2021/09/18 02:52:11;;;;;;;7.93;7.13;;;;;;;;;;5011701;28;20181;-86
2021/09/18 02:55:15;;;;;;;6.63;5.97;;;;;;;;;;5032211;28;20184;-86
2021/09/18 02:58:19;;;;;;;8.17;6.37;;;;;;;;;;5073990;28;20171;-86
2021/09/18 03:01:24;;;;;;;7.43;6.73;;;;;;;;;;5050507;28;20172;-86
2021/09/18 03:04:28;;;;;;;7.50;6.70;;;;;;;;;;5060384;28;20187;-86
2021/09/18 03:07:32;;;;;;;7.17;6.47;;;;;;;;;;5049733;28;20571;-86
2021/09/18 03:10:36;;;;;;;8.27;5.80;;;;;;;;;;5050549;28;20187;-86
2021/09/18 03:13:40;;;;;;;7.47;6.40;;;;;;;;;;5050946;28;20200;-86
2021/09/18 03:16:44;;;;;;;8.90;6.43;;;;;;;;;;5030696;28;20212;-86
2021/09/18 03:19:51;;;;;;;7.67;6.10;;;;;;;;;;5043794;28;20188;-86
2021/09/18 03:22:55;;;;;;;7.33;6.00;;;;;;;;;;5044294;28;20659;-86
2021/09/18 03:25:59;;;;;;;7.73;6.20;;;;;;;;;;5029989;28;20224;-86
2021/09/18 03:29:03;;;;;;;7.10;6.40;;;;;;;;;;5053017;28;20191;-86
2021/09/18 03:32:07;;;;;;;10.43;6.73;;;;;;;;;;5041439;28;20195;-86
2021/09/18 03:35:11;;;;;;;9.90;6.73;;;;;;;;;;5028166;28;20204;-86
2021/09/18 03:38:15;;;;;;;7.23;6.53;;;;;;;;;;5010491;28;20181;-86
2021/09/18 03:41:19;;;;;;;7.67;6.37;;;;;;;;;;5021375;28;20185;-86
2021/09/18 03:44:23;;;;;;;8.87;7.00;;;;;;;;;;5024580;28;20539;-86
2021/09/18 03:47:28;;;;;;;6.77;6.07;;;;;;;;;;5059011;28;20689;-86
2021/09/18 03:50:32;;;;;;;7.43;6.60;;;;;;;;;;5029807;28;20195;-86
2021/09/18 03:53:36;;;;;;;8.10;6.43;;;;;;;;;;5029821;28;20200;-84
2021/09/18 03:56:41;;;;;;;6.43;5.43;;;;;;;;;;5061288;28;20677;-86
2021/09/18 03:59:44;;;;;;;7.60;6.40;;;;;;;;;;5026214;28;20208;-86
2021/09/18 04:02:49;;;;;;;6.17;5.57;;;;;;;;;;5013271;28;20180;-86
2021/09/18 04:05:53;;;;;;;6.70;6.10;;;;;;;;;;5022423;28;20228;-86
2021/09/18 04:08:57;;;;;;;6.50;5.80;;;;;;;;;;5047980;28;20195;-86
2021/09/18 04:12:02;;;;;;;6.00;5.40;;;;;;;;;;5050660;28;20662;-86
2021/09/18 04:15:07;;;;;;;9.53;6.10;;;;;;;;;;5034280;28;20184;-86
2021/09/18 04:18:11;;;;;;;7.67;6.07;;;;;;;;;;5047860;28;20196;-86
2021/09/18 04:21:16;;;;;;;8.00;6.70;;;;;;;;;;5026388;28;20201;-86
2021/09/18 04:24:20;;;;;;;12.53;6.83;;;;;;;;;;5038331;28;20188;-86
2021/09/18 04:27:24;;;;;;;10.23;6.70;;;;;;;;;;5044997;28;20224;-86
2021/09/18 04:30:28;;;;;;;9.33;6.83;;;;;;;;;;5033148;28;20180;-86
2021/09/18 04:33:33;;;;;;;19.20;7.83;;;;;;;;;;5046216;28;20212;-86
2021/09/18 04:36:37;;;;;;;7.10;6.17;;;;;;;;;;5045055;28;20207;-87
2021/09/18 04:39:41;;;;;;;12.47;6.60;;;;;;;;;;5033478;28;20184;-86
2021/09/18 04:42:45;;;;;;;10.73;6.17;;;;;;;;;;5052046;28;20191;-86
2021/09/18 04:45:51;;;;;;;16.80;7.07;;;;;;;;;;5074354;28;20215;-87
2021/09/18 04:48:55;;;;;;;7.57;5.93;;;;;;;;;;5052862;28;20543;-86
2021/09/18 04:52:00;;;;;;;86.53;9.67;;;;;;;;;;5064515;28;20184;-86
2021/09/18 04:55:04;;;;;;;17.20;7.40;;;;;;;;;;5064600;28;20175;-85
2021/09/18 04:58:09;;;;;;;9.23;7.30;;;;;;;;;;5066073;23;20224;-85
2021/09/18 05:01:13;;;;;;;21.23;8.10;;;;;;;;;;5015444;28;20181;-85
2021/09/18 05:04:17;;;;;;;13.10;7.53;;;;;;;;;;5008831;28;20188;-86
2021/09/18 05:07:22;;;;;;;11.17;7.17;;;;;;;;;;5036610;28;20204;-85
2021/09/18 05:10:26;;;;;;;8.70;7.80;;;;;;;;;;5051724;28;20179;-85
2021/09/18 05:13:30;;;;;;;12.87;8.70;;;;;;;;;;5051805;28;20538;-85
2021/09/18 05:16:34;;;;;;;11.37;7.83;;;;;;;;;;5059699;28;20523;-86
2021/09/18 05:19:38;;;;;;;11.13;7.60;;;;;;;;;;5067780;28;20183;-85
2021/09/18 05:22:42;;;;;;;19.70;7.70;;;;;;;;;;5043185;28;20195;-85
2021/09/18 05:25:46;;;;;;;10.10;6.93;;;;;;;;;;5061807;28;20180;-85
2021/09/18 05:28:52;;;;;;;7.83;6.03;;;;;;;;;;5051842;28;20211;-86
2021/09/18 05:31:55;;;;;;;13.67;7.80;;;;;;;;;;5046816;28;20196;-86
2021/09/18 05:35:00;;;;;;;8.53;6.40;;;;;;;;;;5041863;28;20657;-86
2021/09/18 05:38:04;;;;;;;6.80;5.70;;;;;;;;;;5058021;28;20220;-83
2021/09/18 05:41:17;;;;;;;10.57;6.27;;;;;;;;;;5031550;28;20191;-87
2021/09/18 05:49:31;;;;;;;67.97;10.17;;;;;;;;;;5055076;23;20212;-76
2021/09/18 05:52:35;;;;;;;17.30;6.60;;;;;;;;;;5071537;28;20223;-75
2021/09/18 05:55:39;;;;;;;14.63;6.30;;;;;;;;;;5073550;28;20175;-76
2021/09/18 05:58:43;;;;;;;10.00;5.90;;;;;;;;;;5072571;28;20183;-75
2021/09/18 06:01:48;;;;;;;8.20;5.50;;;;;;;;;;5072239;28;20566;-76
2021/09/18 06:04:54;;;;;;;10.87;6.93;;;;;;;;;;5072067;28;20195;-75
2021/09/18 06:07:58;;;;;;;8.47;7.10;;;;;;;;;;5073943;28;20211;-75
2021/09/18 06:11:02;;;;;;;9.60;7.40;;;;;;;;;;5054647;28;20228;-75
2021/09/18 06:14:06;;;;;;;12.47;8.47;;;;;;;;;;5053198;28;20180;-76
2021/09/18 06:17:10;;;;;;;11.80;8.90;;;;;;;;;;5054032;28;20192;-75
2021/09/18 06:20:14;;;;;;;33.00;10.17;;;;;;;;;;5065909;28;20187;-75
2021/09/18 06:23:18;;;;;;;29.97;12.33;;;;;;;;;;5071060;28;20206;-76
2021/09/18 06:26:22;;;;;;;22.80;11.37;;;;;;;;;;5065410;28;20203;-75
2021/09/18 06:29:27;;;;;;;18.50;11.80;;;;;;;;;;5065279;28;20198;-75
2021/09/18 06:32:31;;;;;;;29.43;13.73;;;;;;;;;;5073104;28;20609;-75
2021/09/18 06:35:35;;;;;;;37.80;15.87;;;;;;;;;;5033432;28;20215;-74
2021/09/18 06:38:39;;;;;;;29.13;16.73;;;;;;;;;;5033369;28;20203;-75
2021/09/18 06:41:43;;;;;;;29.63;19.17;;;;;;;;;;5059936;28;20230;-75
2021/09/18 06:44:47;;;;;;;31.47;19.90;;;;;;;;;;5057366;28;20685;-76
2021/09/18 06:47:52;;;;;;;24.87;17.60;;;;;;;;;;5040603;28;20231;-76
2021/09/18 06:50:57;;;;;;;19.10;13.07;;;;;;;;;;5032800;28;20591;-76
2021/09/18 06:54:01;;;;;;;17.43;13.50;;;;;;;;;;5048418;28;20191;-76
2021/09/18 06:57:11;;;;;;;14.37;11.27;;;;;;;;;;5059303;28;20265;-76
2021/09/18 07:00:15;;;;;;;12.77;10.63;;;;;;;;;;5053520;28;20203;-76
2021/09/18 07:03:19;;;;;;;12.87;10.03;;;;;;;;;;5053360;28;20191;-76
2021/09/18 07:06:24;;;;;;;18.87;10.17;;;;;;;;;;5054236;28;20195;-76
2021/09/18 07:09:28;;;;;;;13.67;9.80;;;;;;;;;;5052611;28;20183;-77
2021/09/18 07:12:31;;;;;;;14.33;9.67;;;;;;;;;;5063240;28;20223;-76
2021/09/18 07:15:35;;;;;;;18.80;11.43;;;;;;;;;;5039891;28;20184;-76
2021/09/18 07:18:40;;;;;;;17.00;11.70;;;;;;;;;;5050264;28;20207;-76
2021/09/18 07:21:44;;;;;;;14.27;12.33;;;;;;;;;;5053137;28;20226;-76
2021/09/18 07:24:48;;;;;;;15.63;13.27;;;;;;;;;;5072859;28;20210;-76
2021/09/18 07:27:53;;;;;;;16.43;11.83;;;;;;;;;;5056867;28;20218;-76
2021/09/18 07:30:58;;;;;;;15.00;10.83;;;;;;;;;;5033112;28;20232;-76
2021/09/18 07:34:02;;;;;;;15.07;12.10;;;;;;;;;;5066147;28;20197;-76
2021/09/18 07:37:06;;;;;;;15.53;11.00;;;;;;;;;;5074221;28;20183;-76
2021/09/18 07:40:12;;;;;;;13.50;11.17;;;;;;;;;;5037805;28;20183;-76
2021/09/18 07:43:16;;;;;;;12.50;9.93;;;;;;;;;;5036913;28;20195;-76
2021/09/18 07:46:20;;;;;;;12.30;10.03;;;;;;;;;;5036031;28;20176;-76
2021/09/18 07:49:24;;;;;;;12.03;10.03;;;;;;;;;;5054363;28;20195;-76
2021/09/18 07:52:29;;;;;;;12.00;10.57;;;;;;;;;;5075100;28;20234;-76
2021/09/18 07:55:33;;;;;;;15.17;10.03;;;;;;;;;;5062740;28;20203;-76
2021/09/18 07:58:37;;;;;;;14.07;9.30;;;;;;;;;;5055764;28;20186;-76
2021/09/18 08:01:41;;;;;;;17.20;9.77;;;;;;;;;;5061138;28;20222;-76
2021/09/18 08:04:45;;;;;;;13.00;9.77;;;;;;;;;;5076091;28;20191;-76
2021/09/18 08:07:50;;;;;;;9.90;8.87;;;;;;;;;;5035186;28;20220;-76
2021/09/18 08:10:54;;;;;;;60.17;11.53;;;;;;;;;;5036238;28;20232;-76
2021/09/18 08:13:58;;;;;;;16.03;10.80;;;;;;;;;;5035567;28;20196;-76
2021/09/18 08:17:02;;;;;;;14.70;9.03;;;;;;;;;;5035129;28;20209;-76
2021/09/18 08:20:06;;;;;;;10.73;9.33;;;;;;;;;;5035161;28;20513;-76
2021/09/18 08:23:11;;;;;;;12.67;9.37;;;;;;;;;;5048366;28;20192;-76
2021/09/18 08:26:14;;;;;;;14.67;9.90;;;;;;;;;;5065076;28;20195;-77
2021/09/18 08:29:18;;;;;;;10.43;9.33;;;;;;;;;;5064297;28;20207;-76
2021/09/18 08:32:23;;;;;;;18.63;10.73;;;;;;;;;;5060096;28;20228;-76
2021/09/18 08:35:27;;;;;;;10.70;9.33;;;;;;;;;;5058784;28;20190;-77
2021/09/18 08:38:31;;;;;;;11.90;9.47;;;;;;;;;;5074142;28;20195;-75
2021/09/18 08:41:35;;;;;;;12.87;9.97;;;;;;;;;;5075428;28;20215;-74
2021/09/18 08:44:39;;;;;;;10.47;8.43;;;;;;;;;;5074961;28;20187;-75
2021/09/18 08:47:43;;;;;;;12.73;9.33;;;;;;;;;;5046126;28;20224;-74
2021/09/18 08:50:49;;;;;;;10.83;9.27;;;;;;;;;;5042337;28;20705;-74
2021/09/18 08:53:55;;;;;;;12.30;10.97;;;;;;;;;;5034398;28;20188;-74
2021/09/18 08:56:59;;;;;;;11.00;9.90;;;;;;;;;;5047302;28;20290;-77
2021/09/18 09:00:07;;;;;;;15.67;10.40;;;;;;;;;;5054965;28;20172;-75
2021/09/18 09:03:12;;;;;;;14.93;11.33;;;;;;;;;;5055273;28;20558;-74
2021/09/18 09:06:19;;;;;;;13.67;10.53;;;;;;;;;;5034888;28;20666;-76
2021/09/18 09:09:23;;;;;;;18.93;8.47;;;;;;;;;;5072184;28;20708;-75
2021/09/18 09:12:34;;;;;;;10.83;8.40;;;;;;;;;;5067681;28;20215;-75
2021/09/18 09:15:40;;;;;;;10.23;9.20;;;;;;;;;;5055386;28;20188;-75
2021/09/18 09:18:44;;;;;;;10.03;8.17;;;;;;;;;;5054760;28;20627;-75
2021/09/18 09:21:54;;;;;;;8.53;7.30;;;;;;;;;;5060584;28;20219;-75
2021/09/18 09:24:58;;;;;;;9.07;7.27;;;;;;;;;;5044299;28;20188;-74
2021/09/18 09:28:34;;;;;;;5.97;5.10;;;;;;;;;;5069478;28;20669;-75
2021/09/18 09:31:39;;;;;;;7.60;6.90;;;;;;;;;;5045828;28;20236;-77
2021/09/18 09:34:43;;;;;;;7.27;6.57;;;;;;;;;;5050023;28;20202;-75
2021/09/18 09:37:56;;;;;;;8.90;7.20;;;;;;;;;;5037102;28;20200;-75
2021/09/18 09:41:00;;;;;;;7.53;6.83;;;;;;;;;;5043791;28;20227;-75
2021/09/18 09:44:09;;;;;;;6.27;5.40;;;;;;;;;;5054709;28;20187;-75
2021/09/18 09:47:14;;;;;;;5.83;5.30;;;;;;;;;;5066210;28;20197;-75
2021/09/18 09:50:19;;;;;;;3.35;2.25;;;;;;;;;;5062766;28;20190;-75
2021/09/18 09:53:28;;;;;;;2.47;1.90;;;;;;;;;;5059225;28;20636;-75
2021/09/18 09:56:32;;;;;;;12.93;2.63;;;;;;;;;;5073936;28;20540;-75
2021/09/18 09:59:37;;;;;;;3.65;1.70;;;;;;;;;;5046814;28;20555;-76
2021/09/18 10:02:43;;;;;;;3.33;2.60;;;;;;;;;;5063021;28;20221;-76
2021/09/18 10:05:47;;;;;;;2.92;2.38;;;;;;;;;;5033888;28;20175;-75
2021/09/18 10:08:51;;;;;;;2.47;1.60;;;;;;;;;;5039623;28;20555;-75
2021/09/18 10:11:57;;;;;;;1.67;1.58;;;;;;;;;;5048294;28;20684;-75
2021/09/18 10:15:05;;;;;;;1.60;1.42;;;;;;;;;;5053988;28;20197;-76
2021/09/18 10:18:10;;;;;;;2.47;1.80;;;;;;;;;;5054468;28;20202;-77
2021/09/18 10:24:52;;;;;;;2.65;1.92;;;;;;;;;;5034145;28;20190;-76
2021/09/18 10:28:28;;;;;;;4.95;2.05;;;;;;;;;;5042507;28;20194;-77
2021/09/18 10:31:33;;;;;;;2.58;1.70;;;;;;;;;;5073957;28;20225;-77
2021/09/18 10:34:37;;;;;;;1.20;1.10;;;;;;;;;;5049929;28;20186;-77
2021/09/18 10:37:41;;;;;;;1.33;1.20;;;;;;;;;;5050842;28;20201;-77
2021/09/18 10:40:57;;;;;;;1.23;1.13;;;;;;;;;;5046754;28;20560;-75
2021/09/18 10:44:02;;;;;;;3.75;1.63;;;;;;;;;;5045522;28;20188;-76
2021/09/18 10:47:06;;;;;;;1.20;1.00;;;;;;;;;;5043863;28;20202;-76
2021/09/18 10:50:26;;;;;;;29.65;2.58;;;;;;;;;;5032829;28;20227;-75
2021/09/18 10:53:15;;;;;;;1.52;1.10;;;;;;;;;;5070282;28;20821;-75
2021/09/18 10:55:58;;;;;;;7.13;2.25;;;;;;;;;;5132083;27;20817;-77
2021/09/18 10:58:34;;;;;;;5.85;2.17;;;;;;;;;;5123256;22;21422;-75
2021/09/18 11:01:21;;;;;;;3.47;1.90;;;;;;;;;;5062985;28;20906;-74
2021/09/18 11:03:59;;;;;;;4.47;1.90;;;;;;;;;;5111878;27;21394;-76
2021/09/18 11:06:39;;;;;;;3.25;2.45;;;;;;;;;;5111037;27;20810;-75
2021/09/18 11:09:46;;;;;;;3.35;2.30;;;;;;;;;;5070838;28;20825;-73
2021/09/18 11:12:22;;;;;;;2.70;2.40;;;;;;;;;;5109511;27;20861;-73
2021/09/18 11:15:04;;;;;;;4.28;2.28;;;;;;;;;;5056913;28;20809;-76
2021/09/18 11:28:06;;;;;;;2.50;2.30;;;;;;;;;;5110681;27;20816;-75
2021/09/18 11:30:50;;;;;;;23.30;3.53;;;;;;;;;;5110248;27;20851;-75
2021/09/18 11:33:27;;;;;;;3.20;2.90;;;;;;;;;;5069808;28;20827;-74
2021/09/18 11:36:03;;;;;;;3.20;2.90;;;;;;;;;;5070128;28;20845;-74
2021/09/18 11:38:40;;;;;;;3.80;2.50;;;;;;;;;;5070642;28;20824;-75
2021/09/18 11:41:20;;;;;;;2.10;1.70;;;;;;;;;;5111376;27;20813;-74
2021/09/18 11:44:07;;;;;;;2.33;2.10;;;;;;;;;;5110614;27;20843;-75
2021/09/18 11:46:44;;;;;;;2.60;2.00;;;;;;;;;;5110979;27;20821;-74
2021/09/18 11:49:30;;;;;;;3.37;1.80;;;;;;;;;;5007762;28;20898;-75
2021/09/18 11:52:07;;;;;;;2.67;2.37;;;;;;;;;;5111207;27;20833;-76
2021/09/18 11:54:43;;;;;;;3.40;2.10;;;;;;;;;;5110866;27;20812;-74
2021/09/18 11:57:20;;;;;;;2.60;1.90;;;;;;;;;;5110672;27;20843;-74
2021/09/18 12:00:11;;;;;;;3.13;2.00;;;;;;;;;;5110823;27;20825;-75
2021/09/18 12:02:48;;;;;;;3.10;1.83;;;;;;;;;;5111237;27;20818;-75
2021/09/18 12:05:24;;;;;;;2.50;2.30;;;;;;;;;;5110736;27;20809;-74
2021/09/18 12:08:03;;;;;;;2.78;2.50;;;;;;;;;;5111815;27;20869;-75
2021/09/18 12:10:41;;;;;;;3.70;2.40;;;;;;;;;;5131193;27;20829;-75
2021/09/18 12:13:20;;;;;;;2.93;2.43;;;;;;;;;;5109586;27;20842;-75
2021/09/18 12:16:02;;;;;;;15.47;2.50;;;;;;;;;;5063033;27;20830;-75
2021/09/18 12:18:41;;;;;;;6.83;2.20;;;;;;;;;;5107194;27;20792;-76
2021/09/18 12:21:22;;;;;;;2.40;1.90;;;;;;;;;;5098025;27;20903;-76
2021/09/18 12:24:01;;;;;;;7.53;2.10;;;;;;;;;;5062952;27;20827;-76
2021/09/18 12:26:40;;;;;;;25.70;4.97;;;;;;;;;;5106737;27;20924;-76
2021/09/18 12:29:18;;;;;;;3.08;2.00;;;;;;;;;;5066851;28;20831;-76
2021/09/18 12:32:04;;;;;;;3.78;2.05;;;;;;;;;;5127818;27;20894;-76
2021/09/18 12:34:40;;;;;;;2.72;2.22;;;;;;;;;;5128003;27;20810;-74
2021/09/18 12:37:25;;;;;;;2.08;1.90;;;;;;;;;;5087233;27;20848;-77
2021/09/18 12:40:19;;;;;;;3.35;1.90;;;;;;;;;;5107427;27;20883;-74
2021/09/18 12:43:07;;;;;;;2.53;2.05;;;;;;;;;;5107320;27;20826;-77
2021/09/18 12:46:12;;;;;;;4.97;1.85;;;;;;;;;;5091094;27;21413;-74
2021/09/18 12:49:00;;;;;;;12.18;1.98;;;;;;;;;;5070709;28;20851;-74
2021/09/18 12:51:40;;;;;;;2.40;1.80;;;;;;;;;;5070019;28;20832;-74
2021/09/18 12:54:19;;;;;;;2.45;1.88;;;;;;;;;;5110567;27;20830;-74
2021/09/18 12:57:05;;;;;;;3.08;1.90;;;;;;;;;;5070469;28;20828;-73
2021/09/18 12:59:45;;;;;;;1.80;1.63;;;;;;;;;;5111586;27;21257;-76
2021/09/18 13:02:26;;;;;;;2.17;1.70;;;;;;;;;;5108662;27;21489;-74
2021/09/18 13:05:04;;;;;;;3.15;1.83;;;;;;;;;;5111633;27;20830;-74
2021/09/18 13:07:41;;;;;;;2.03;1.83;;;;;;;;;;5066890;28;20879;-76
2021/09/18 13:10:24;;;;;;;10.18;2.20;;;;;;;;;;5128112;27;20834;-74
2021/09/18 13:13:02;;;;;;;36.60;3.50;;;;;;;;;;5107773;27;21398;-73
2021/09/18 13:15:38;;;;;;;5.80;2.00;;;;;;;;;;5067041;28;21280;-73
2021/09/18 13:18:21;;;;;;;2.15;1.80;;;;;;;;;;5066845;28;21287;-76
2021/09/18 13:20:58;;;;;;;6.18;2.50;;;;;;;;;;5107732;27;20847;-75
2021/09/18 13:23:35;;;;;;;3.75;2.03;;;;;;;;;;5107877;27;21478;-74
2021/09/18 13:26:13;;;;;;;2.53;2.00;;;;;;;;;;5084132;28;20866;-76
2021/09/18 13:28:50;;;;;;;6.50;2.55;;;;;;;;;;5107596;27;20864;-74
2021/09/18 13:31:29;;;;;;;9.65;2.50;;;;;;;;;;5101259;27;20946;-76
2021/09/18 13:34:06;;;;;;;4.03;1.70;;;;;;;;;;5087177;27;21300;-73
2021/09/18 13:36:42;;;;;;;5.13;2.05;;;;;;;;;;5107900;27;20858;-73
2021/09/18 13:39:19;;;;;;;2.20;2.00;;;;;;;;;;5107434;27;20822;-74
2021/09/18 13:41:57;;;;;;;7.53;2.40;;;;;;;;;;5086151;27;20889;-75
2021/09/18 13:44:34;;;;;;;2.58;1.92;;;;;;;;;;5066974;28;20871;-74
2021/09/18 13:47:11;;;;;;;2.10;1.90;;;;;;;;;;5107486;27;20821;-76
2021/09/18 13:49:49;;;;;;;2.70;1.90;;;;;;;;;;5066761;28;21684;-73
2021/09/18 13:52:26;;;;;;;11.30;2.90;;;;;;;;;;5066741;28;21516;-74
2021/09/18 13:55:04;;;;;;;3.17;2.22;;;;;;;;;;5107579;27;20798;-73
2021/09/18 13:57:42;;;;;;;2.65;2.10;;;;;;;;;;5004206;28;20876;-76
2021/09/18 14:00:18;;;;;;;2.47;1.90;;;;;;;;;;5107317;27;20836;-76
2021/09/18 14:02:55;;;;;;;3.90;2.10;;;;;;;;;;5107696;27;20858;-75
2021/09/18 14:05:32;;;;;;;6.15;2.38;;;;;;;;;;5067109;28;20835;-76
2021/09/18 14:08:08;;;;;;;2.40;2.05;;;;;;;;;;5107658;27;20849;-75
2021/09/18 14:10:45;;;;;;;2.83;2.58;;;;;;;;;;5066833;28;20863;-76
2021/09/18 14:13:22;;;;;;;4.50;2.83;;;;;;;;;;5107791;27;20807;-74
2021/09/18 14:15:58;;;;;;;2.63;2.42;;;;;;;;;;5107677;27;20849;-76
2021/09/18 14:18:35;;;;;;;2.10;1.90;;;;;;;;;;5067232;28;20806;-74
2021/09/18 14:21:11;;;;;;;2.50;2.30;;;;;;;;;;5107500;27;20851;-76
2021/09/18 14:23:48;;;;;;;2.90;2.50;;;;;;;;;;5107510;27;20866;-76
2021/09/18 14:26:27;;;;;;;5.30;2.13;;;;;;;;;;5107793;27;20835;-76
2021/09/18 14:29:04;;;;;;;5.55;2.88;;;;;;;;;;5107555;27;20879;-76
2021/09/18 14:31:41;;;;;;;3.35;2.22;;;;;;;;;;5107547;27;20822;-76
2021/09/18 14:34:17;;;;;;;3.85;2.70;;;;;;;;;;5107651;27;21539;-74
2021/09/18 14:36:54;;;;;;;4.05;2.40;;;;;;;;;;5067089;28;20870;-75
2021/09/18 14:39:31;;;;;;;3.90;2.23;;;;;;;;;;5107710;27;20805;-74
2021/09/18 14:42:09;;;;;;;3.20;2.90;;;;;;;;;;5067101;28;20848;-76
2021/09/18 14:44:47;;;;;;;2.70;2.33;;;;;;;;;;5071153;28;20795;-74
2021/09/18 14:47:24;;;;;;;3.30;2.47;;;;;;;;;;5071236;28;21358;-74
2021/09/18 14:50:01;;;;;;;7.10;4.20;;;;;;;;;;5111359;27;20874;-75
2021/09/18 14:52:37;;;;;;;7.37;3.40;;;;;;;;;;5110296;27;20838;-75
2021/09/18 14:55:13;;;;;;;8.90;3.20;;;;;;;;;;5115701;27;20890;-74
2021/09/18 14:57:50;;;;;;;9.63;3.87;;;;;;;;;;5111769;27;20865;-76
2021/09/18 15:00:27;;;;;;;10.80;3.50;;;;;;;;;;5111440;27;20812;-73
2021/09/18 15:03:03;;;;;;;7.27;3.47;;;;;;;;;;5132071;27;21210;-76
2021/09/18 15:05:40;;;;;;;6.30;3.63;;;;;;;;;;5115934;27;20873;-75
2021/09/18 15:08:17;;;;;;;3.40;3.10;;;;;;;;;;5115400;27;21382;-75
2021/09/18 15:10:53;;;;;;;6.10;3.40;;;;;;;;;;5084900;28;21284;-73
2021/09/18 15:13:30;;;;;;;6.40;3.10;;;;;;;;;;5111163;27;20869;-75
2021/09/18 15:16:06;;;;;;;3.57;3.27;;;;;;;;;;5111774;27;21431;-75
2021/09/18 15:18:43;;;;;;;3.50;3.20;;;;;;;;;;5070394;28;21419;-73
2021/09/18 15:21:20;;;;;;;4.30;3.03;;;;;;;;;;5099704;27;20845;-75
2021/09/18 15:23:56;;;;;;;3.67;3.30;;;;;;;;;;5069696;28;21466;-75
2021/09/18 15:26:33;;;;;;;7.87;3.13;;;;;;;;;;5113646;27;20881;-75
2021/09/18 15:29:09;;;;;;;5.47;3.47;;;;;;;;;;5110144;27;20861;-76
2021/09/18 15:31:46;;;;;;;5.30;3.10;;;;;;;;;;5060666;28;21523;-76
2021/09/18 15:34:23;;;;;;;6.53;3.23;;;;;;;;;;5106735;27;20868;-76
2021/09/18 15:37:01;;;;;;;6.47;3.37;;;;;;;;;;5107490;27;20830;-76
2021/09/18 15:39:39;;;;;;;14.23;3.63;;;;;;;;;;5078151;28;20862;-75
2021/09/18 15:42:16;;;;;;;3.73;3.33;;;;;;;;;;5107111;27;20835;-76
2021/09/18 15:44:52;;;;;;;5.10;3.37;;;;;;;;;;5077715;28;20830;-77
2021/09/18 15:47:29;;;;;;;4.43;3.67;;;;;;;;;;5107086;27;20861;-76
2021/09/18 15:50:07;;;;;;;8.40;3.80;;;;;;;;;;5107533;27;20807;-76
2021/09/18 15:52:44;;;;;;;4.30;3.20;;;;;;;;;;5047014;28;20835;-75
2021/09/18 15:55:20;;;;;;;8.87;3.53;;;;;;;;;;5066534;28;20819;-76
2021/09/18 15:57:57;;;;;;;7.07;4.07;;;;;;;;;;5067110;28;20818;-76
2021/09/18 16:00:33;;;;;;;4.80;3.90;;;;;;;;;;5107216;27;21479;-76
2021/09/18 16:03:10;;;;;;;6.43;3.90;;;;;;;;;;5107088;27;21366;-76
2021/09/18 16:05:48;;;;;;;7.17;4.10;;;;;;;;;;5107045;27;20904;-74
2021/09/18 16:08:25;;;;;;;7.20;3.73;;;;;;;;;;5107591;27;20861;-75
2021/09/18 16:11:02;;;;;;;13.77;4.30;;;;;;;;;;5107630;27;20824;-76
2021/09/18 16:13:40;;;;;;;8.23;4.23;;;;;;;;;;5127881;27;20825;-73
2021/09/18 16:16:16;;;;;;;24.87;4.90;;;;;;;;;;5107479;27;20876;-75
2021/09/18 16:18:53;;;;;;;10.63;5.13;;;;;;;;;;5066824;28;20882;-76
2021/09/18 16:21:30;;;;;;;9.30;5.60;;;;;;;;;;5107533;27;20823;-76
2021/09/18 16:24:06;;;;;;;8.93;5.87;;;;;;;;;;5128235;27;21750;-76
2021/09/18 16:26:43;;;;;;;7.57;6.00;;;;;;;;;;5101115;27;20879;-77
2021/09/18 16:29:19;;;;;;;9.07;5.73;;;;;;;;;;5051761;28;20828;-76
2021/09/18 16:31:56;;;;;;;8.00;6.50;;;;;;;;;;5066559;28;21515;-75
2021/09/18 16:34:32;;;;;;;9.67;6.33;;;;;;;;;;5107744;27;20799;-76
2021/09/18 16:37:12;;;;;;;7.63;5.87;;;;;;;;;;5067020;28;20826;-76
2021/09/18 16:39:49;;;;;;;10.83;6.03;;;;;;;;;;5107530;27;20865;-76
2021/09/18 16:42:26;;;;;;;6.57;5.07;;;;;;;;;;5107144;27;20849;-75
2021/09/18 16:45:05;;;;;;;7.43;5.70;;;;;;;;;;5108273;27;20830;-75
2021/09/18 16:47:43;;;;;;;6.40;5.80;;;;;;;;;;5067601;28;20826;-76
2021/09/18 16:50:19;;;;;;;9.73;6.87;;;;;;;;;;5067625;28;21268;-76
2021/09/18 16:52:57;;;;;;;7.63;6.37;;;;;;;;;;5107620;27;20892;-76
2021/09/18 16:55:34;;;;;;;6.80;5.87;;;;;;;;;;5107814;27;20818;-76
2021/09/18 16:58:12;;;;;;;7.73;6.47;;;;;;;;;;5002658;28;20816;-75
2021/09/18 17:00:48;;;;;;;6.40;5.80;;;;;;;;;;5007588;28;20849;-75
2021/09/18 17:03:25;;;;;;;6.77;6.07;;;;;;;;;;5111522;27;20821;-75
2021/09/18 17:06:01;;;;;;;9.77;6.17;;;;;;;;;;5071234;28;20852;-76
2021/09/18 17:08:38;;;;;;;13.23;6.60;;;;;;;;;;5111418;27;21214;-76
2021/09/18 17:11:15;;;;;;;9.97;6.83;;;;;;;;;;5111317;27;20876;-76
2021/09/18 17:13:53;;;;;;;20.03;7.00;;;;;;;;;;5111762;27;20862;-76
2021/09/18 17:16:29;;;;;;;8.33;6.30;;;;;;;;;;5111770;27;20788;-76
2021/09/18 17:19:06;;;;;;;11.73;6.53;;;;;;;;;;5111408;27;20854;-76
2021/09/18 17:21:43;;;;;;;11.20;6.73;;;;;;;;;;5111751;27;21230;-76
2021/09/18 17:24:19;;;;;;;14.27;6.67;;;;;;;;;;5111705;27;20865;-76
2021/09/18 17:26:56;;;;;;;7.53;6.80;;;;;;;;;;5070463;28;21257;-76
2021/09/18 17:29:33;;;;;;;9.63;8.60;;;;;;;;;;5070626;28;20880;-76
2021/09/18 17:32:09;;;;;;;13.93;10.70;;;;;;;;;;5111079;27;20869;-76
2021/09/18 17:34:50;;;;;;;14.53;10.33;;;;;;;;;;5131675;27;20814;-76
2021/09/18 17:37:28;;;;;;;13.00;10.07;;;;;;;;;;5070614;28;20819;-76